sensor_id;sensor_type;location;lat;lon;timestamp;P1;durP1;ratioP1;P2;durP2;ratioP2
37411;SDS011;23278;52.110;6.050;2024-01-30T00:02:11;7.45;;;6.07;;
37411;SDS011;23278;52.110;6.050;2024-01-30T00:04:37;6.90;;;5.72;;
37411;SDS011;23278;52.110;6.050;2024-01-30T00:07:03;10.85;;;6.22;;
37411;SDS011;23278;52.110;6.050;2024-01-30T00:09:29;9.77;;;7.40;;
37411;SDS011;23278;52.110;6.050;2024-01-30T00:11:55;8.55;;;6.93;;
37411;SDS011;23278;52.110;6.050;2024-01-30T00:14:22;9.10;;;7.25;;
37411;SDS011;23278;52.110;6.050;2024-01-30T00:16:48;10.32;;;6.30;;
37411;SDS011;23278;52.110;6.050;2024-01-30T00:19:14;8.05;;;7.22;;
37411;SDS011;23278;52.110;6.050;2024-01-30T00:21:40;6.35;;;5.63;;
37411;SDS011;23278;52.110;6.050;2024-01-30T00:24:06;6.28;;;5.15;;
37411;SDS011;23278;52.110;6.050;2024-01-30T00:26:32;12.45;;;7.25;;
37411;SDS011;23278;52.110;6.050;2024-01-30T00:28:58;8.60;;;5.80;;
37411;SDS011;23278;52.110;6.050;2024-01-30T00:31:24;8.57;;;6.75;;
37411;SDS011;23278;52.110;6.050;2024-01-30T00:33:50;8.30;;;6.60;;
37411;SDS011;23278;52.110;6.050;2024-01-30T00:36:16;5.85;;;5.22;;
37411;SDS011;23278;52.110;6.050;2024-01-30T00:38:41;8.77;;;6.75;;
37411;SDS011;23278;52.110;6.050;2024-01-30T00:41:08;6.90;;;5.45;;
37411;SDS011;23278;52.110;6.050;2024-01-30T00:43:35;8.90;;;5.10;;
37411;SDS011;23278;52.110;6.050;2024-01-30T00:46:01;7.70;;;5.82;;
37411;SDS011;23278;52.110;6.050;2024-01-30T00:48:27;7.95;;;5.85;;
37411;SDS011;23278;52.110;6.050;2024-01-30T00:50:53;6.10;;;5.25;;
37411;SDS011;23278;52.110;6.050;2024-01-30T00:53:19;7.13;;;6.38;;
37411;SDS011;23278;52.110;6.050;2024-01-30T00:55:45;9.70;;;5.82;;
37411;SDS011;23278;52.110;6.050;2024-01-30T00:58:11;10.45;;;6.15;;
37411;SDS011;23278;52.110;6.050;2024-01-30T01:00:37;9.25;;;5.20;;
37411;SDS011;23278;52.110;6.050;2024-01-30T01:03:04;8.20;;;5.80;;
37411;SDS011;23278;52.110;6.050;2024-01-30T01:05:30;6.65;;;4.75;;
37411;SDS011;23278;52.110;6.050;2024-01-30T01:07:56;7.97;;;5.65;;
37411;SDS011;23278;52.110;6.050;2024-01-30T01:10:22;7.82;;;6.18;;
37411;SDS011;23278;52.110;6.050;2024-01-30T01:12:48;7.53;;;6.35;;
37411;SDS011;23278;52.110;6.050;2024-01-30T01:15:15;7.68;;;5.53;;
37411;SDS011;23278;52.110;6.050;2024-01-30T01:17:40;7.13;;;6.43;;
37411;SDS011;23278;52.110;6.050;2024-01-30T01:20:07;10.23;;;7.03;;
37411;SDS011;23278;52.110;6.050;2024-01-30T01:22:34;10.10;;;7.03;;
37411;SDS011;23278;52.110;6.050;2024-01-30T01:25:00;7.55;;;6.10;;
37411;SDS011;23278;52.110;6.050;2024-01-30T01:27:26;8.20;;;6.22;;
37411;SDS011;23278;52.110;6.050;2024-01-30T01:29:52;7.20;;;6.10;;
37411;SDS011;23278;52.110;6.050;2024-01-30T01:32:19;7.13;;;6.43;;
37411;SDS011;23278;52.110;6.050;2024-01-30T01:34:45;10.90;;;5.72;;
37411;SDS011;23278;52.110;6.050;2024-01-30T01:37:11;6.40;;;5.43;;
37411;SDS011;23278;52.110;6.050;2024-01-30T01:39:37;9.05;;;5.78;;
37411;SDS011;23278;52.110;6.050;2024-01-30T01:42:03;7.80;;;5.78;;
37411;SDS011;23278;52.110;6.050;2024-01-30T01:44:29;7.00;;;6.00;;
37411;SDS011;23278;52.110;6.050;2024-01-30T01:46:55;6.28;;;5.70;;
37411;SDS011;23278;52.110;6.050;2024-01-30T01:49:25;6.82;;;5.47;;
37411;SDS011;23278;52.110;6.050;2024-01-30T01:51:55;7.10;;;5.53;;
37411;SDS011;23278;52.110;6.050;2024-01-30T01:54:24;5.50;;;4.60;;
37411;SDS011;23278;52.110;6.050;2024-01-30T01:56:52;11.63;;;7.38;;
37411;SDS011;23278;52.110;6.050;2024-01-30T01:59:18;9.75;;;5.60;;
37411;SDS011;23278;52.110;6.050;2024-01-30T02:01:45;9.48;;;6.57;;
37411;SDS011;23278;52.110;6.050;2024-01-30T02:04:15;10.13;;;6.85;;
37411;SDS011;23278;52.110;6.050;2024-01-30T02:06:42;9.07;;;6.40;;
37411;SDS011;23278;52.110;6.050;2024-01-30T02:09:09;8.02;;;6.03;;
37411;SDS011;23278;52.110;6.050;2024-01-30T02:11:35;7.82;;;6.20;;
37411;SDS011;23278;52.110;6.050;2024-01-30T02:14:02;8.43;;;6.13;;
37411;SDS011;23278;52.110;6.050;2024-01-30T02:16:29;8.60;;;6.55;;
37411;SDS011;23278;52.110;6.050;2024-01-30T02:18:55;8.60;;;7.20;;
37411;SDS011;23278;52.110;6.050;2024-01-30T02:21:25;7.13;;;5.53;;
37411;SDS011;23278;52.110;6.050;2024-01-30T02:23:51;11.73;;;6.43;;
37411;SDS011;23278;52.110;6.050;2024-01-30T02:26:20;7.53;;;5.78;;
37411;SDS011;23278;52.110;6.050;2024-01-30T02:28:45;8.93;;;6.82;;
37411;SDS011;23278;52.110;6.050;2024-01-30T02:31:11;8.95;;;6.35;;
37411;SDS011;23278;52.110;6.050;2024-01-30T02:33:37;7.45;;;6.50;;
37411;SDS011;23278;52.110;6.050;2024-01-30T02:36:03;8.27;;;6.97;;
37411;SDS011;23278;52.110;6.050;2024-01-30T02:38:29;12.75;;;8.40;;
37411;SDS011;23278;52.110;6.050;2024-01-30T02:40:55;10.10;;;7.43;;
37411;SDS011;23278;52.110;6.050;2024-01-30T02:43:24;11.45;;;8.00;;
37411;SDS011;23278;52.110;6.050;2024-01-30T02:45:50;7.45;;;6.28;;
37411;SDS011;23278;52.110;6.050;2024-01-30T02:48:16;9.27;;;5.93;;
37411;SDS011;23278;52.110;6.050;2024-01-30T02:50:42;8.73;;;5.50;;
37411;SDS011;23278;52.110;6.050;2024-01-30T02:53:08;8.55;;;6.15;;
37411;SDS011;23278;52.110;6.050;2024-01-30T02:55:33;8.40;;;5.95;;
37411;SDS011;23278;52.110;6.050;2024-01-30T02:58:00;6.88;;;5.88;;
37411;SDS011;23278;52.110;6.050;2024-01-30T03:00:26;7.00;;;6.28;;
37411;SDS011;23278;52.110;6.050;2024-01-30T03:02:52;9.68;;;6.70;;
37411;SDS011;23278;52.110;6.050;2024-01-30T03:05:18;9.95;;;6.28;;
37411;SDS011;23278;52.110;6.050;2024-01-30T03:07:44;9.00;;;5.60;;
37411;SDS011;23278;52.110;6.050;2024-01-30T03:10:10;6.88;;;5.97;;
37411;SDS011;23278;52.110;6.050;2024-01-30T03:12:36;8.57;;;5.25;;
37411;SDS011;23278;52.110;6.050;2024-01-30T03:15:01;10.50;;;6.95;;
37411;SDS011;23278;52.110;6.050;2024-01-30T03:17:28;9.25;;;7.32;;
37411;SDS011;23278;52.110;6.050;2024-01-30T03:19:54;10.15;;;6.35;;
37411;SDS011;23278;52.110;6.050;2024-01-30T03:22:20;8.20;;;6.97;;
37411;SDS011;23278;52.110;6.050;2024-01-30T03:24:45;6.32;;;5.00;;
37411;SDS011;23278;52.110;6.050;2024-01-30T03:27:11;7.05;;;5.13;;
37411;SDS011;23278;52.110;6.050;2024-01-30T03:29:37;9.10;;;5.97;;
37411;SDS011;23278;52.110;6.050;2024-01-30T03:32:03;6.10;;;4.88;;
37411;SDS011;23278;52.110;6.050;2024-01-30T03:34:29;6.20;;;4.75;;
37411;SDS011;23278;52.110;6.050;2024-01-30T03:36:55;8.32;;;5.88;;
37411;SDS011;23278;52.110;6.050;2024-01-30T03:39:21;7.75;;;5.63;;
37411;SDS011;23278;52.110;6.050;2024-01-30T03:41:48;7.75;;;5.47;;
37411;SDS011;23278;52.110;6.050;2024-01-30T03:44:14;7.90;;;6.90;;
37411;SDS011;23278;52.110;6.050;2024-01-30T03:46:40;8.70;;;5.47;;
37411;SDS011;23278;52.110;6.050;2024-01-30T03:49:05;9.05;;;6.32;;
37411;SDS011;23278;52.110;6.050;2024-01-30T03:51:31;8.85;;;7.05;;
37411;SDS011;23278;52.110;6.050;2024-01-30T03:53:57;7.70;;;6.50;;
37411;SDS011;23278;52.110;6.050;2024-01-30T03:56:23;8.63;;;6.00;;
37411;SDS011;23278;52.110;6.050;2024-01-30T03:58:51;7.00;;;5.57;;
37411;SDS011;23278;52.110;6.050;2024-01-30T04:01:17;7.15;;;5.07;;
37411;SDS011;23278;52.110;6.050;2024-01-30T04:03:43;11.80;;;7.43;;
37411;SDS011;23278;52.110;6.050;2024-01-30T04:06:09;6.80;;;5.55;;
37411;SDS011;23278;52.110;6.050;2024-01-30T04:08:36;6.80;;;5.90;;
37411;SDS011;23278;52.110;6.050;2024-01-30T04:11:03;7.53;;;5.63;;
37411;SDS011;23278;52.110;6.050;2024-01-30T04:13:31;8.88;;;5.75;;
37411;SDS011;23278;52.110;6.050;2024-01-30T04:16:01;5.72;;;4.93;;
37411;SDS011;23278;52.110;6.050;2024-01-30T04:18:28;7.22;;;5.63;;
37411;SDS011;23278;52.110;6.050;2024-01-30T04:20:57;9.57;;;5.90;;
37411;SDS011;23278;52.110;6.050;2024-01-30T04:23:23;8.18;;;6.05;;
37411;SDS011;23278;52.110;6.050;2024-01-30T04:25:49;8.02;;;5.78;;
37411;SDS011;23278;52.110;6.050;2024-01-30T04:28:15;7.43;;;5.97;;
37411;SDS011;23278;52.110;6.050;2024-01-30T04:30:41;7.20;;;5.97;;
37411;SDS011;23278;52.110;6.050;2024-01-30T04:33:06;5.90;;;5.20;;
37411;SDS011;23278;52.110;6.050;2024-01-30T04:35:32;6.65;;;5.72;;
37411;SDS011;23278;52.110;6.050;2024-01-30T04:37:58;9.50;;;5.43;;
37411;SDS011;23278;52.110;6.050;2024-01-30T04:40:24;6.53;;;4.38;;
37411;SDS011;23278;52.110;6.050;2024-01-30T04:42:50;6.80;;;6.05;;
37411;SDS011;23278;52.110;6.050;2024-01-30T04:45:16;7.63;;;5.45;;
37411;SDS011;23278;52.110;6.050;2024-01-30T04:47:42;7.50;;;6.05;;
37411;SDS011;23278;52.110;6.050;2024-01-30T04:50:08;8.35;;;6.90;;
37411;SDS011;23278;52.110;6.050;2024-01-30T04:52:34;14.20;;;7.80;;
37411;SDS011;23278;52.110;6.050;2024-01-30T04:55:01;8.13;;;6.47;;
37411;SDS011;23278;52.110;6.050;2024-01-30T04:57:27;9.48;;;7.05;;
37411;SDS011;23278;52.110;6.050;2024-01-30T04:59:53;8.02;;;5.75;;
37411;SDS011;23278;52.110;6.050;2024-01-30T05:02:19;8.65;;;6.47;;
37411;SDS011;23278;52.110;6.050;2024-01-30T05:04:45;7.25;;;5.80;;
37411;SDS011;23278;52.110;6.050;2024-01-30T05:07:11;8.63;;;6.22;;
37411;SDS011;23278;52.110;6.050;2024-01-30T05:09:37;9.00;;;6.07;;
37411;SDS011;23278;52.110;6.050;2024-01-30T05:12:03;8.20;;;5.53;;
37411;SDS011;23278;52.110;6.050;2024-01-30T05:14:29;6.43;;;5.82;;
37411;SDS011;23278;52.110;6.050;2024-01-30T05:16:55;8.70;;;6.30;;
37411;SDS011;23278;52.110;6.050;2024-01-30T05:19:21;8.70;;;5.70;;
37411;SDS011;23278;52.110;6.050;2024-01-30T05:21:48;5.88;;;5.28;;
37411;SDS011;23278;52.110;6.050;2024-01-30T05:24:15;7.57;;;5.72;;
37411;SDS011;23278;52.110;6.050;2024-01-30T05:26:41;7.85;;;6.18;;
37411;SDS011;23278;52.110;6.050;2024-01-30T05:29:07;10.43;;;5.93;;
37411;SDS011;23278;52.110;6.050;2024-01-30T05:31:33;9.43;;;6.93;;
37411;SDS011;23278;52.110;6.050;2024-01-30T05:33:59;11.48;;;6.15;;
37411;SDS011;23278;52.110;6.050;2024-01-30T05:36:26;7.90;;;6.28;;
37411;SDS011;23278;52.110;6.050;2024-01-30T05:38:51;7.63;;;5.00;;
37411;SDS011;23278;52.110;6.050;2024-01-30T05:41:18;9.82;;;6.63;;
37411;SDS011;23278;52.110;6.050;2024-01-30T05:43:44;7.30;;;5.45;;
37411;SDS011;23278;52.110;6.050;2024-01-30T05:46:10;8.90;;;6.25;;
37411;SDS011;23278;52.110;6.050;2024-01-30T05:48:36;7.32;;;6.32;;
37411;SDS011;23278;52.110;6.050;2024-01-30T05:51:02;10.25;;;5.28;;
37411;SDS011;23278;52.110;6.050;2024-01-30T05:53:29;9.40;;;5.22;;
37411;SDS011;23278;52.110;6.050;2024-01-30T05:55:55;6.55;;;5.60;;
37411;SDS011;23278;52.110;6.050;2024-01-30T05:58:21;6.78;;;5.30;;
37411;SDS011;23278;52.110;6.050;2024-01-30T06:00:47;13.38;;;7.22;;
37411;SDS011;23278;52.110;6.050;2024-01-30T06:03:13;9.93;;;6.25;;
37411;SDS011;23278;52.110;6.050;2024-01-30T06:05:39;8.43;;;5.80;;
37411;SDS011;23278;52.110;6.050;2024-01-30T06:08:05;8.85;;;6.60;;
37411;SDS011;23278;52.110;6.050;2024-01-30T06:10:31;6.82;;;5.07;;
37411;SDS011;23278;52.110;6.050;2024-01-30T06:12:57;6.32;;;5.47;;
37411;SDS011;23278;52.110;6.050;2024-01-30T06:15:23;7.45;;;5.07;;
37411;SDS011;23278;52.110;6.050;2024-01-30T06:17:49;7.32;;;5.85;;
37411;SDS011;23278;52.110;6.050;2024-01-30T06:20:15;10.10;;;5.65;;
37411;SDS011;23278;52.110;6.050;2024-01-30T06:22:40;9.35;;;4.90;;
37411;SDS011;23278;52.110;6.050;2024-01-30T06:25:06;10.68;;;6.20;;
37411;SDS011;23278;52.110;6.050;2024-01-30T06:27:33;7.32;;;5.28;;
37411;SDS011;23278;52.110;6.050;2024-01-30T06:29:59;12.32;;;6.72;;
37411;SDS011;23278;52.110;6.050;2024-01-30T06:32:24;7.10;;;5.70;;
37411;SDS011;23278;52.110;6.050;2024-01-30T06:34:50;7.82;;;6.43;;
37411;SDS011;23278;52.110;6.050;2024-01-30T06:37:16;6.63;;;5.13;;
37411;SDS011;23278;52.110;6.050;2024-01-30T06:39:42;7.95;;;5.85;;
37411;SDS011;23278;52.110;6.050;2024-01-30T06:42:09;6.57;;;5.88;;
37411;SDS011;23278;52.110;6.050;2024-01-30T06:44:35;10.00;;;6.18;;
37411;SDS011;23278;52.110;6.050;2024-01-30T06:47:01;6.60;;;5.28;;
37411;SDS011;23278;52.110;6.050;2024-01-30T06:49:26;6.20;;;4.38;;
37411;SDS011;23278;52.110;6.050;2024-01-30T06:51:52;6.53;;;5.60;;
37411;SDS011;23278;52.110;6.050;2024-01-30T06:54:18;8.45;;;6.45;;
37411;SDS011;23278;52.110;6.050;2024-01-30T06:56:44;8.05;;;6.00;;
37411;SDS011;23278;52.110;6.050;2024-01-30T06:59:10;7.00;;;5.80;;
37411;SDS011;23278;52.110;6.050;2024-01-30T07:01:36;5.95;;;4.82;;
37411;SDS011;23278;52.110;6.050;2024-01-30T07:04:02;8.40;;;6.38;;
37411;SDS011;23278;52.110;6.050;2024-01-30T07:06:28;7.78;;;6.28;;
37411;SDS011;23278;52.110;6.050;2024-01-30T07:08:54;6.85;;;5.90;;
37411;SDS011;23278;52.110;6.050;2024-01-30T07:11:20;6.40;;;5.63;;
37411;SDS011;23278;52.110;6.050;2024-01-30T07:13:47;6.53;;;5.55;;
37411;SDS011;23278;52.110;6.050;2024-01-30T07:16:14;7.50;;;5.70;;
37411;SDS011;23278;52.110;6.050;2024-01-30T07:18:40;6.47;;;5.78;;
37411;SDS011;23278;52.110;6.050;2024-01-30T07:21:06;7.45;;;6.00;;
37411;SDS011;23278;52.110;6.050;2024-01-30T07:23:32;6.38;;;4.85;;
37411;SDS011;23278;52.110;6.050;2024-01-30T07:26:00;7.35;;;4.97;;
37411;SDS011;23278;52.110;6.050;2024-01-30T07:28:26;10.40;;;6.20;;
37411;SDS011;23278;52.110;6.050;2024-01-30T07:30:52;8.20;;;6.10;;
37411;SDS011;23278;52.110;6.050;2024-01-30T07:33:19;9.13;;;6.43;;
37411;SDS011;23278;52.110;6.050;2024-01-30T07:35:45;7.18;;;5.20;;
37411;SDS011;23278;52.110;6.050;2024-01-30T07:38:11;12.77;;;6.35;;
37411;SDS011;23278;52.110;6.050;2024-01-30T07:40:37;6.78;;;5.63;;
37411;SDS011;23278;52.110;6.050;2024-01-30T07:43:03;8.80;;;5.78;;
37411;SDS011;23278;52.110;6.050;2024-01-30T07:45:29;10.05;;;5.78;;
37411;SDS011;23278;52.110;6.050;2024-01-30T07:47:58;8.90;;;5.40;;
37411;SDS011;23278;52.110;6.050;2024-01-30T07:50:27;8.63;;;5.82;;
37411;SDS011;23278;52.110;6.050;2024-01-30T07:52:53;10.15;;;5.38;;
37411;SDS011;23278;52.110;6.050;2024-01-30T07:55:21;6.53;;;5.45;;
37411;SDS011;23278;52.110;6.050;2024-01-30T07:57:52;6.30;;;5.00;;
37411;SDS011;23278;52.110;6.050;2024-01-30T08:00:19;6.65;;;5.07;;
37411;SDS011;23278;52.110;6.050;2024-01-30T08:02:46;7.43;;;4.57;;
37411;SDS011;23278;52.110;6.050;2024-01-30T08:05:12;9.15;;;6.45;;
37411;SDS011;23278;52.110;6.050;2024-01-30T08:07:43;7.82;;;5.25;;
37411;SDS011;23278;52.110;6.050;2024-01-30T08:10:11;6.00;;;4.85;;
37411;SDS011;23278;52.110;6.050;2024-01-30T08:12:38;8.23;;;5.75;;
37411;SDS011;23278;52.110;6.050;2024-01-30T08:15:04;10.00;;;4.93;;
37411;SDS011;23278;52.110;6.050;2024-01-30T08:17:31;8.90;;;5.07;;
37411;SDS011;23278;52.110;6.050;2024-01-30T08:19:56;8.40;;;5.03;;
37411;SDS011;23278;52.110;6.050;2024-01-30T08:22:22;7.35;;;4.93;;
37411;SDS011;23278;52.110;6.050;2024-01-30T08:24:48;9.77;;;5.72;;
37411;SDS011;23278;52.110;6.050;2024-01-30T08:27:14;6.97;;;5.75;;
37411;SDS011;23278;52.110;6.050;2024-01-30T08:29:41;7.05;;;5.43;;
37411;SDS011;23278;52.110;6.050;2024-01-30T08:32:07;9.98;;;5.85;;
37411;SDS011;23278;52.110;6.050;2024-01-30T08:34:33;9.93;;;6.13;;
37411;SDS011;23278;52.110;6.050;2024-01-30T08:36:59;11.88;;;6.22;;
37411;SDS011;23278;52.110;6.050;2024-01-30T08:39:25;6.60;;;5.78;;
37411;SDS011;23278;52.110;6.050;2024-01-30T08:41:51;7.97;;;5.78;;
37411;SDS011;23278;52.110;6.050;2024-01-30T08:44:17;7.45;;;5.28;;
37411;SDS011;23278;52.110;6.050;2024-01-30T08:46:43;8.35;;;5.13;;
37411;SDS011;23278;52.110;6.050;2024-01-30T08:49:13;8.63;;;5.40;;
37411;SDS011;23278;52.110;6.050;2024-01-30T08:51:42;9.35;;;5.60;;
37411;SDS011;23278;52.110;6.050;2024-01-30T08:54:08;6.20;;;4.43;;
37411;SDS011;23278;52.110;6.050;2024-01-30T08:56:34;9.48;;;5.38;;
37411;SDS011;23278;52.110;6.050;2024-01-30T08:58:59;6.43;;;4.60;;
37411;SDS011;23278;52.110;6.050;2024-01-30T09:01:25;9.02;;;5.57;;
37411;SDS011;23278;52.110;6.050;2024-01-30T09:03:52;12.65;;;5.47;;
37411;SDS011;23278;52.110;6.050;2024-01-30T09:06:18;12.65;;;5.72;;
37411;SDS011;23278;52.110;6.050;2024-01-30T09:08:43;10.20;;;6.15;;
37411;SDS011;23278;52.110;6.050;2024-01-30T09:11:13;8.73;;;4.80;;
37411;SDS011;23278;52.110;6.050;2024-01-30T09:13:39;8.25;;;5.32;;
37411;SDS011;23278;52.110;6.050;2024-01-30T09:16:06;7.28;;;5.20;;
37411;SDS011;23278;52.110;6.050;2024-01-30T09:18:32;15.52;;;6.60;;
37411;SDS011;23278;52.110;6.050;2024-01-30T09:20:59;7.20;;;5.35;;
37411;SDS011;23278;52.110;6.050;2024-01-30T09:23:26;10.15;;;5.57;;
37411;SDS011;23278;52.110;6.050;2024-01-30T09:25:53;8.45;;;5.43;;
37411;SDS011;23278;52.110;6.050;2024-01-30T09:28:19;9.30;;;5.30;;
37411;SDS011;23278;52.110;6.050;2024-01-30T09:30:45;7.38;;;5.78;;
37411;SDS011;23278;52.110;6.050;2024-01-30T09:33:11;9.98;;;5.30;;
37411;SDS011;23278;52.110;6.050;2024-01-30T09:35:37;7.15;;;5.13;;
37411;SDS011;23278;52.110;6.050;2024-01-30T09:38:03;11.25;;;5.95;;
37411;SDS011;23278;52.110;6.050;2024-01-30T09:40:29;8.02;;;5.75;;
37411;SDS011;23278;52.110;6.050;2024-01-30T09:42:55;9.70;;;5.55;;
37411;SDS011;23278;52.110;6.050;2024-01-30T09:45:25;9.63;;;5.35;;
37411;SDS011;23278;52.110;6.050;2024-01-30T09:47:52;8.35;;;5.03;;
37411;SDS011;23278;52.110;6.050;2024-01-30T09:50:18;12.23;;;4.85;;
37411;SDS011;23278;52.110;6.050;2024-01-30T09:52:45;9.00;;;6.22;;
37411;SDS011;23278;52.110;6.050;2024-01-30T09:55:12;8.18;;;6.28;;
37411;SDS011;23278;52.110;6.050;2024-01-30T09:57:38;9.18;;;4.90;;
37411;SDS011;23278;52.110;6.050;2024-01-30T10:00:05;11.07;;;5.20;;
37411;SDS011;23278;52.110;6.050;2024-01-30T10:02:39;11.65;;;6.20;;
37411;SDS011;23278;52.110;6.050;2024-01-30T10:05:06;14.02;;;6.32;;
37411;SDS011;23278;52.110;6.050;2024-01-30T10:07:33;8.88;;;6.38;;
37411;SDS011;23278;52.110;6.050;2024-01-30T10:09:59;9.52;;;6.60;;
37411;SDS011;23278;52.110;6.050;2024-01-30T10:12:26;7.40;;;5.85;;
37411;SDS011;23278;52.110;6.050;2024-01-30T10:14:52;11.60;;;6.28;;
37411;SDS011;23278;52.110;6.050;2024-01-30T10:17:19;9.50;;;5.30;;
37411;SDS011;23278;52.110;6.050;2024-01-30T10:19:46;10.65;;;5.50;;
37411;SDS011;23278;52.110;6.050;2024-01-30T10:22:12;7.65;;;5.85;;
37411;SDS011;23278;52.110;6.050;2024-01-30T10:24:38;8.82;;;5.22;;
37411;SDS011;23278;52.110;6.050;2024-01-30T10:27:05;8.80;;;6.07;;
37411;SDS011;23278;52.110;6.050;2024-01-30T10:29:32;10.18;;;7.20;;
37411;SDS011;23278;52.110;6.050;2024-01-30T10:32:01;10.43;;;6.00;;
37411;SDS011;23278;52.110;6.050;2024-01-30T10:34:28;8.80;;;5.88;;
37411;SDS011;23278;52.110;6.050;2024-01-30T10:39:42;7.38;;;6.00;;
37411;SDS011;23278;52.110;6.050;2024-01-30T10:42:17;12.30;;;6.72;;
37411;SDS011;23278;52.110;6.050;2024-01-30T10:44:44;7.50;;;5.43;;
37411;SDS011;23278;52.110;6.050;2024-01-30T10:47:29;6.68;;;5.60;;
37411;SDS011;23278;52.110;6.050;2024-01-30T10:49:56;10.13;;;6.10;;
37411;SDS011;23278;52.110;6.050;2024-01-30T10:52:23;11.20;;;5.88;;
37411;SDS011;23278;52.110;6.050;2024-01-30T10:54:54;6.43;;;4.82;;
37411;SDS011;23278;52.110;6.050;2024-01-30T10:57:30;8.95;;;6.93;;
37411;SDS011;23278;52.110;6.050;2024-01-30T10:59:59;6.32;;;5.68;;
37411;SDS011;23278;52.110;6.050;2024-01-30T11:02:30;7.10;;;5.25;;
37411;SDS011;23278;52.110;6.050;2024-01-30T11:04:57;8.20;;;5.45;;
37411;SDS011;23278;52.110;6.050;2024-01-30T11:07:25;9.00;;;5.38;;
37411;SDS011;23278;52.110;6.050;2024-01-30T11:09:53;11.50;;;6.03;;
37411;SDS011;23278;52.110;6.050;2024-01-30T11:12:30;8.30;;;5.38;;
37411;SDS011;23278;52.110;6.050;2024-01-30T11:15:06;7.95;;;4.80;;
37411;SDS011;23278;52.110;6.050;2024-01-30T11:17:53;9.10;;;6.13;;
37411;SDS011;23278;52.110;6.050;2024-01-30T11:20:25;7.93;;;4.63;;
37411;SDS011;23278;52.110;6.050;2024-01-30T11:22:52;7.05;;;4.72;;
37411;SDS011;23278;52.110;6.050;2024-01-30T11:25:20;6.50;;;5.63;;
37411;SDS011;23278;52.110;6.050;2024-01-30T11:27:49;8.35;;;5.63;;
37411;SDS011;23278;52.110;6.050;2024-01-30T11:30:26;11.63;;;5.38;;
37411;SDS011;23278;52.110;6.050;2024-01-30T11:35:32;7.47;;;5.30;;
37411;SDS011;23278;52.110;6.050;2024-01-30T11:38:00;10.13;;;4.65;;
37411;SDS011;23278;52.110;6.050;2024-01-30T11:40:30;14.70;;;4.68;;
37411;SDS011;23278;52.110;6.050;2024-01-30T11:42:58;12.15;;;5.93;;
37411;SDS011;23278;52.110;6.050;2024-01-30T11:45:28;8.25;;;4.63;;
37411;SDS011;23278;52.110;6.050;2024-01-30T11:47:54;7.00;;;4.60;;
37411;SDS011;23278;52.110;6.050;2024-01-30T11:50:20;9.43;;;4.65;;
37411;SDS011;23278;52.110;6.050;2024-01-30T11:52:47;4.88;;;4.38;;
37411;SDS011;23278;52.110;6.050;2024-01-30T11:55:14;9.50;;;5.28;;
37411;SDS011;23278;52.110;6.050;2024-01-30T11:57:40;11.93;;;5.93;;
37411;SDS011;23278;52.110;6.050;2024-01-30T12:00:13;7.45;;;4.40;;
37411;SDS011;23278;52.110;6.050;2024-01-30T12:02:40;10.82;;;5.32;;
37411;SDS011;23278;52.110;6.050;2024-01-30T12:05:07;7.38;;;5.70;;
37411;SDS011;23278;52.110;6.050;2024-01-30T12:07:34;9.60;;;5.40;;
37411;SDS011;23278;52.110;6.050;2024-01-30T12:10:01;9.65;;;5.65;;
37411;SDS011;23278;52.110;6.050;2024-01-30T12:12:28;8.60;;;5.28;;
37411;SDS011;23278;52.110;6.050;2024-01-30T12:14:55;10.55;;;6.28;;
37411;SDS011;23278;52.110;6.050;2024-01-30T12:17:34;9.57;;;5.32;;
37411;SDS011;23278;52.110;6.050;2024-01-30T12:20:10;9.98;;;4.88;;
37411;SDS011;23278;52.110;6.050;2024-01-30T12:22:44;9.70;;;5.75;;
37411;SDS011;23278;52.110;6.050;2024-01-30T12:25:15;9.85;;;4.45;;
37411;SDS011;23278;52.110;6.050;2024-01-30T12:27:43;8.93;;;4.28;;
37411;SDS011;23278;52.110;6.050;2024-01-30T12:30:12;7.10;;;3.10;;
37411;SDS011;23278;52.110;6.050;2024-01-30T12:32:40;4.53;;;3.00;;
37411;SDS011;23278;52.110;6.050;2024-01-30T12:35:17;8.93;;;3.63;;
37411;SDS011;23278;52.110;6.050;2024-01-30T12:37:45;8.80;;;3.50;;
37411;SDS011;23278;52.110;6.050;2024-01-30T12:40:13;5.90;;;3.03;;
37411;SDS011;23278;52.110;6.050;2024-01-30T12:42:40;7.50;;;3.28;;
37411;SDS011;23278;52.110;6.050;2024-01-30T12:45:08;7.50;;;2.90;;
37411;SDS011;23278;52.110;6.050;2024-01-30T12:47:34;8.05;;;3.17;;
37411;SDS011;23278;52.110;6.050;2024-01-30T12:50:00;3.78;;;1.92;;
37411;SDS011;23278;52.110;6.050;2024-01-30T12:52:26;7.20;;;3.22;;
37411;SDS011;23278;52.110;6.050;2024-01-30T12:54:53;5.00;;;2.33;;
37411;SDS011;23278;52.110;6.050;2024-01-30T12:57:19;3.92;;;2.30;;
37411;SDS011;23278;52.110;6.050;2024-01-30T12:59:45;6.15;;;2.47;;
37411;SDS011;23278;52.110;6.050;2024-01-30T13:02:12;5.80;;;2.20;;
37411;SDS011;23278;52.110;6.050;2024-01-30T13:04:39;6.15;;;1.70;;
37411;SDS011;23278;52.110;6.050;2024-01-30T13:07:05;5.25;;;1.83;;
37411;SDS011;23278;52.110;6.050;2024-01-30T13:09:31;4.85;;;1.02;;
37411;SDS011;23278;52.110;6.050;2024-01-30T13:11:58;4.45;;;1.00;;
37411;SDS011;23278;52.110;6.050;2024-01-30T13:14:25;3.85;;;1.20;;
37411;SDS011;23278;52.110;6.050;2024-01-30T13:16:51;2.50;;;1.10;;
37411;SDS011;23278;52.110;6.050;2024-01-30T13:19:17;6.50;;;1.80;;
37411;SDS011;23278;52.110;6.050;2024-01-30T13:21:43;6.10;;;0.95;;
37411;SDS011;23278;52.110;6.050;2024-01-30T13:24:09;3.83;;;0.80;;
37411;SDS011;23278;52.110;6.050;2024-01-30T13:26:35;2.53;;;0.95;;
37411;SDS011;23278;52.110;6.050;2024-01-30T13:29:02;2.28;;;0.95;;
37411;SDS011;23278;52.110;6.050;2024-01-30T13:31:28;4.32;;;1.10;;
37411;SDS011;23278;52.110;6.050;2024-01-30T13:33:54;2.33;;;1.08;;
37411;SDS011;23278;52.110;6.050;2024-01-30T13:36:21;3.80;;;0.93;;
37411;SDS011;23278;52.110;6.050;2024-01-30T13:38:47;2.80;;;0.88;;
37411;SDS011;23278;52.110;6.050;2024-01-30T13:41:13;1.80;;;0.70;;
37411;SDS011;23278;52.110;6.050;2024-01-30T13:43:39;1.42;;;0.70;;
37411;SDS011;23278;52.110;6.050;2024-01-30T13:46:05;2.55;;;1.08;;
37411;SDS011;23278;52.110;6.050;2024-01-30T13:48:31;5.53;;;1.00;;
37411;SDS011;23278;52.110;6.050;2024-01-30T13:50:57;5.10;;;1.80;;
37411;SDS011;23278;52.110;6.050;2024-01-30T13:53:23;2.50;;;1.13;;
37411;SDS011;23278;52.110;6.050;2024-01-30T13:55:49;7.00;;;1.52;;
37411;SDS011;23278;52.110;6.050;2024-01-30T13:58:15;5.97;;;1.35;;
37411;SDS011;23278;52.110;6.050;2024-01-30T14:00:41;6.80;;;2.22;;
37411;SDS011;23278;52.110;6.050;2024-01-30T14:03:07;7.15;;;1.63;;
37411;SDS011;23278;52.110;6.050;2024-01-30T14:05:32;4.47;;;2.30;;
37411;SDS011;23278;52.110;6.050;2024-01-30T14:07:59;6.60;;;1.90;;
37411;SDS011;23278;52.110;6.050;2024-01-30T14:10:25;3.65;;;2.45;;
37411;SDS011;23278;52.110;6.050;2024-01-30T14:12:52;4.95;;;2.15;;
37411;SDS011;23278;52.110;6.050;2024-01-30T14:15:18;6.95;;;2.50;;
37411;SDS011;23278;52.110;6.050;2024-01-30T14:17:44;6.80;;;3.10;;
37411;SDS011;23278;52.110;6.050;2024-01-30T14:20:14;7.40;;;3.95;;
37411;SDS011;23278;52.110;6.050;2024-01-30T14:22:42;4.88;;;2.75;;
37411;SDS011;23278;52.110;6.050;2024-01-30T14:25:08;3.78;;;1.80;;
37411;SDS011;23278;52.110;6.050;2024-01-30T14:27:35;4.82;;;1.77;;
37411;SDS011;23278;52.110;6.050;2024-01-30T14:30:01;6.57;;;1.98;;
37411;SDS011;23278;52.110;6.050;2024-01-30T14:32:28;5.28;;;2.28;;
37411;SDS011;23278;52.110;6.050;2024-01-30T14:34:54;3.42;;;1.35;;
37411;SDS011;23278;52.110;6.050;2024-01-30T14:37:20;5.40;;;1.50;;
37411;SDS011;23278;52.110;6.050;2024-01-30T14:39:47;5.35;;;1.63;;
37411;SDS011;23278;52.110;6.050;2024-01-30T14:42:14;4.72;;;1.52;;
37411;SDS011;23278;52.110;6.050;2024-01-30T14:44:41;4.35;;;1.77;;
37411;SDS011;23278;52.110;6.050;2024-01-30T14:47:07;4.18;;;1.20;;
37411;SDS011;23278;52.110;6.050;2024-01-30T14:49:33;8.35;;;1.98;;